Terminal Aerodrome Forecast
Issued by NWS

Home | Current Version | Previous Version | Text Only | Print | Product List | Glossary On
Versions: 1 2 3 4 5 6 7 8 9 10 11 12 13 14 15 16 17 18 19 20
000
FTUS46 KEKA 240000 CCA
TAFCEC
TAF COR
KCEC 240010Z 2400/2424 16018G26KT 3SM -RA BR FEW004 SCT010 OVC015
      TEMPO 2400/2404 1SM -RA BR BKN004 OVC010
     FM240400 17015G22KT 5SM -RA BR SCT004 OVC012
      TEMPO 2404/2408 2SM RA BR OVC004
     FM240900 17024G32KT 3SM -RA BR OVC010=

USA.gov is the U.S. government's official web portal to all federal, state and local government web resources and services.